Time;durP1;ratioP1;P1;durP2;ratioP2;P2;SDS_P1;SDS_P2;PMS_P1;PMS_P2;Temp;Humidity;BMP_temperature;BMP_pressure;BME280_temperature;BME280_humidity;BME280_pressure;Samples;Min_cycle;Max_cycle;Signal;HPM_P1;HPM_P2
2023/01/26 00:01:23;;;;;;;0.20;0.20;;;;;;;20.04;60.65;100013.00;5028018;28;20037;-87
2023/01/26 00:03:49;;;;;;;0.25;0.20;;;;;;;20.04;60.78;100015.72;5028388;28;20544;-87
2023/01/26 00:06:19;;;;;;;0.20;0.20;;;;;;;20.04;60.72;100007.59;5030961;28;20025;-87
2023/01/26 00:08:46;;;;;;;0.22;0.22;;;;;;;20.03;60.50;100003.22;5013027;28;20061;-87
2023/01/26 00:11:14;;;;;;;0.20;0.20;;;;;;;20.06;60.64;100007.34;5029954;28;20425;-88
2023/01/26 00:13:39;;;;;;;0.15;0.15;;;;;;;20.04;60.58;100004.88;5028975;28;20067;-88
2023/01/26 00:16:08;;;;;;;0.20;0.20;;;;;;;20.06;60.56;100007.34;5050074;28;20025;-88
2023/01/26 00:18:35;;;;;;;0.30;0.20;;;;;;;20.06;60.55;100004.63;5050261;28;20085;-88
2023/01/26 00:21:01;;;;;;;0.22;0.22;;;;;;;20.05;60.48;100009.22;5032444;28;20544;-88
2023/01/26 00:23:27;;;;;;;0.30;0.22;;;;;;;19.98;60.57;100005.91;5049615;28;20033;-88
2023/01/26 00:25:53;;;;;;;0.20;0.20;;;;;;;20.05;60.59;100011.91;5050026;28;20104;-88
2023/01/26 00:28:19;;;;;;;0.20;0.20;;;;;;;20.05;60.49;100014.63;5048979;28;20200;-88
2023/01/26 00:30:44;;;;;;;0.20;0.20;;;;;;;20.07;60.41;100011.66;5050292;28;20017;-88
2023/01/26 00:33:10;;;;;;;0.20;0.20;;;;;;;20.08;60.56;100011.41;5049886;28;20021;-88
2023/01/26 00:35:36;;;;;;;0.28;0.20;;;;;;;20.07;60.68;100009.78;5049778;28;20052;-88
2023/01/26 00:38:01;;;;;;;0.20;0.20;;;;;;;20.04;60.44;100004.03;5048028;28;20115;-88
2023/01/26 00:40:27;;;;;;;0.20;0.20;;;;;;;20.04;60.51;100004.88;5048652;28;20387;-88
2023/01/26 00:42:53;;;;;;;0.15;0.15;;;;;;;20.06;60.72;100012.75;5048454;28;20036;-88
2023/01/26 00:45:20;;;;;;;0.20;0.20;;;;;;;20.07;60.41;100015.22;5048214;28;20028;-88
2023/01/26 00:47:45;;;;;;;0.47;0.30;;;;;;;20.07;60.35;100019.81;5049713;28;20020;-88
2023/01/26 00:50:11;;;;;;;0.20;0.20;;;;;;;20.04;60.71;100015.72;5048013;28;20024;-88
2023/01/26 00:52:37;;;;;;;0.20;0.20;;;;;;;20.05;60.73;100006.50;5047794;28;20115;-88
2023/01/26 00:55:03;;;;;;;0.30;0.30;;;;;;;20.05;60.64;100014.63;5031094;28;20383;-88
2023/01/26 00:57:29;;;;;;;0.20;0.20;;;;;;;20.06;60.36;100018.19;5048818;28;20037;-88
2023/01/26 00:59:54;;;;;;;0.38;0.20;;;;;;;20.05;60.48;100021.97;5049354;28;20475;-88
2023/01/26 01:02:20;;;;;;;0.10;0.10;;;;;;;20.05;60.51;100021.97;5047636;28;20028;-87
2023/01/26 01:04:46;;;;;;;0.20;0.20;;;;;;;20.05;60.45;100017.34;5048889;28;20375;-87
2023/01/26 01:07:11;;;;;;;0.20;0.20;;;;;;;20.06;60.47;100016.28;5047126;28;20028;-88
2023/01/26 01:09:37;;;;;;;0.20;0.20;;;;;;;20.06;60.42;100018.19;5047050;28;20028;-88
2023/01/26 01:12:08;;;;;;;0.20;0.20;;;;;;;20.03;60.44;100016.00;5046978;28;20412;-87
2023/01/26 01:14:34;;;;;;;0.20;0.20;;;;;;;20.08;60.59;100021.44;5028855;28;20052;-88
2023/01/26 01:17:00;;;;;;;0.20;0.20;;;;;;;20.07;60.54;100034.22;5011296;28;20376;-88
2023/01/26 01:19:26;;;;;;;0.20;0.20;;;;;;;20.08;60.55;100032.31;5009893;28;20026;-88
2023/01/26 01:21:51;;;;;;;0.20;0.20;;;;;;;20.05;60.58;100039.06;5028579;28;20021;-88
2023/01/26 01:24:17;;;;;;;0.30;0.30;;;;;;;20.00;60.21;100022.72;5011259;28;20035;-88
2023/01/26 01:26:43;;;;;;;0.20;0.20;;;;;;;20.06;60.31;100029.84;5011163;28;20543;-88
2023/01/26 01:29:11;;;;;;;0.20;0.20;;;;;;;20.07;60.36;100042.34;5011090;28;20033;-88
2023/01/26 01:31:37;;;;;;;0.20;0.20;;;;;;;20.08;60.44;100043.16;5010749;28;20083;-87
2023/01/26 01:34:03;;;;;;;0.20;0.20;;;;;;;20.06;60.43;100046.13;5011155;28;20474;-88
2023/01/26 01:36:30;;;;;;;0.20;0.20;;;;;;;20.08;60.53;100049.38;4994483;28;20032;-88
2023/01/26 01:38:55;;;;;;;0.20;0.20;;;;;;;20.08;60.48;100041.25;5011661;28;20472;-88
2023/01/26 01:41:24;;;;;;;0.20;0.20;;;;;;;20.07;60.31;100031.50;4994206;28;20032;-88
2023/01/26 01:43:50;;;;;;;0.47;0.20;;;;;;;20.08;60.25;100027.69;5011408;28;20072;-88
2023/01/26 01:46:37;;;;;;;0.20;0.20;;;;;;;20.08;60.34;100026.88;5010832;28;20038;-88
2023/01/26 01:49:12;;;;;;;0.15;0.15;;;;;;;20.08;60.45;100027.69;5011933;28;20050;-88
2023/01/26 01:51:45;;;;;;;0.20;0.20;;;;;;;20.05;60.46;100044.47;5010179;28;20083;-87
2023/01/26 01:54:14;;;;;;;0.20;0.20;;;;;;;20.06;60.53;100035.28;5010496;28;20026;-87
2023/01/26 01:56:41;;;;;;;0.55;0.20;;;;;;;20.08;60.30;100043.97;5028277;28;20021;-88
2023/01/26 01:59:06;;;;;;;0.30;0.30;;;;;;;20.08;61.01;100049.38;5028329;28;20068;-87
2023/01/26 02:01:32;;;;;;;0.20;0.20;;;;;;;20.09;60.20;100044.78;5010387;28;20029;-88
2023/01/26 02:04:00;;;;;;;0.20;0.20;;;;;;;20.08;60.32;100026.88;5028010;28;20022;-88
2023/01/26 02:06:52;;;;;;;0.20;0.20;;;;;;;20.07;60.34;100026.06;5008915;28;20018;-88
2023/01/26 02:12:22;;;;;;;0.20;0.20;;;;;;;20.06;60.35;100019.00;5012085;28;20391;-89
2023/01/26 02:14:49;;;;;;;0.30;0.30;;;;;;;20.07;60.31;100017.94;5027690;28;20033;-89
2023/01/26 02:17:14;;;;;;;0.30;0.30;;;;;;;20.08;60.04;100022.25;4993540;28;20041;-89
2023/01/26 02:19:49;;;;;;;0.10;0.10;;;;;;;20.07;60.30;100015.22;5027792;28;20026;-89
2023/01/26 02:22:32;;;;;;;0.20;0.20;;;;;;;20.06;60.27;100008.16;5026082;28;20316;-89
2023/01/26 02:24:59;;;;;;;0.10;0.10;;;;;;;20.08;60.39;100014.13;5028376;28;20475;-89
2023/01/26 02:27:25;;;;;;;0.15;0.15;;;;;;;20.06;60.48;100008.16;5025400;28;20053;-89
2023/01/26 02:29:51;;;;;;;0.20;0.20;;;;;;;20.06;60.43;100016.28;4994123;28;20165;-89
2023/01/26 02:32:17;;;;;;;0.22;0.22;;;;;;;20.07;60.19;99998.94;5010014;28;20099;-89
2023/01/26 02:34:43;;;;;;;0.30;0.30;;;;;;;20.03;60.12;99986.97;5027343;28;20033;-89
2023/01/26 02:37:13;;;;;;;0.20;0.20;;;;;;;20.07;60.34;99993.50;5027588;28;20034;-89
2023/01/26 02:39:49;;;;;;;0.20;0.20;;;;;;;20.10;60.23;99996.78;5027322;28;20302;-89
2023/01/26 02:44:59;;;;;;;0.20;0.20;;;;;;;20.06;60.23;99997.28;5011656;28;20040;-88
2023/01/26 02:47:24;;;;;;;0.17;0.17;;;;;;;20.07;60.19;100003.53;5009581;28;20037;-88
2023/01/26 02:49:50;;;;;;;0.32;0.30;;;;;;;20.06;60.23;100005.44;4992729;28;20033;-89
2023/01/26 02:52:26;;;;;;;0.20;0.20;;;;;;;20.05;60.26;99995.66;5009573;28;20026;-89
2023/01/26 02:55:21;;;;;;;0.20;0.20;;;;;;;20.04;60.26;99993.19;5010926;28;20021;-88
2023/01/26 02:57:44;;;;;;;0.10;0.10;;;;;;;20.07;60.31;99998.94;5008629;28;20038;-89
2023/01/26 03:00:21;;;;;;;0.20;0.20;;;;;;;20.05;60.34;100014.63;5008989;28;20028;-89
2023/01/26 03:02:47;;;;;;;0.20;0.20;;;;;;;20.08;60.18;100019.53;5026915;28;20052;-88
2023/01/26 03:05:13;;;;;;;0.20;0.20;;;;;;;20.08;60.26;100016.03;5027096;28;20082;-89
2023/01/26 03:07:39;;;;;;;0.13;0.13;;;;;;;20.06;60.42;100019.00;5025331;28;20041;-88
2023/01/26 03:10:05;;;;;;;0.15;0.15;;;;;;;20.08;60.26;100016.84;5027109;28;20030;-89
2023/01/26 03:12:31;;;;;;;0.20;0.20;;;;;;;20.04;60.18;100010.31;5024890;28;20479;-89
2023/01/26 03:17:43;;;;;;;0.17;0.17;;;;;;;20.03;60.06;99984.25;5026754;28;20036;-89
2023/01/26 03:28:22;;;;;;;0.20;0.20;;;;;;;20.06;60.08;100024.41;4997135;28;20112;-88
2023/01/26 03:30:48;;;;;;;0.10;0.10;;;;;;;20.08;60.03;100021.44;5026558;28;20030;-89
2023/01/26 03:33:15;;;;;;;0.20;0.20;;;;;;;20.06;60.12;100032.56;5026274;28;20048;-89
2023/01/26 03:35:42;;;;;;;0.20;0.20;;;;;;;20.06;60.19;100013.56;5026522;28;20030;-89
2023/01/26 03:38:07;;;;;;;0.20;0.20;;;;;;;20.06;60.08;100000.00;5026652;28;20040;-89
2023/01/26 03:57:01;;;;;;;0.20;0.20;;;;;;;20.07;60.16;100028.78;5049172;28;20563;-89
2023/01/26 03:59:39;;;;;;;0.20;0.20;;;;;;;20.06;60.11;100019.00;5031471;28;20030;-89
2023/01/26 04:10:18;;;;;;;0.20;0.20;;;;;;;20.08;60.17;99995.13;5026051;28;20428;-89
2023/01/26 04:12:44;;;;;;;0.20;0.20;;;;;;;20.06;60.43;99997.28;5026655;28;20038;-89
2023/01/26 04:23:24;;;;;;;0.20;0.20;;;;;;;20.06;60.29;99991.06;5024676;28;20048;-89
2023/01/26 04:25:50;;;;;;;0.30;0.30;;;;;;;20.06;60.21;99985.63;5026278;28;20484;-89
2023/01/26 04:28:15;;;;;;;0.20;0.20;;;;;;;20.05;60.28;99979.38;5026276;28;20033;-89
2023/01/26 04:30:41;;;;;;;0.20;0.20;;;;;;;20.05;60.47;99973.13;4992553;28;20026;-89
2023/01/26 04:33:06;;;;;;;0.32;0.32;;;;;;;20.07;60.48;99988.09;5005454;28;20108;-89
2023/01/26 04:35:32;;;;;;;0.20;0.20;;;;;;;20.01;60.36;99983.69;5024914;28;20030;-89
2023/01/26 04:37:58;;;;;;;0.20;0.20;;;;;;;20.05;60.27;99992.94;5008671;28;20072;-90
2023/01/26 04:40:24;;;;;;;0.20;0.20;;;;;;;20.05;60.31;99995.66;5026411;28;20603;-89
2023/01/26 04:42:49;;;;;;;0.20;0.20;;;;;;;20.04;60.17;99991.31;5026243;28;20375;-89
2023/01/26 04:45:15;;;;;;;0.20;0.20;;;;;;;20.05;60.11;99987.50;5026471;28;20029;-89
2023/01/26 04:47:41;;;;;;;0.22;0.22;;;;;;;20.03;60.21;100000.53;4995161;28;20025;-89
2023/01/26 04:50:07;;;;;;;0.10;0.10;;;;;;;20.05;60.38;100011.91;5028535;28;20434;-89
2023/01/26 04:52:33;;;;;;;0.20;0.20;;;;;;;20.07;60.17;100009.78;5029328;28;20029;-89
2023/01/26 04:54:59;;;;;;;0.20;0.20;;;;;;;20.08;60.29;99997.84;5029685;28;20576;-89
2023/01/26 04:57:24;;;;;;;0.20;0.20;;;;;;;20.06;60.09;100008.16;5029166;28;20025;-89
2023/01/26 04:59:50;;;;;;;0.20;0.20;;;;;;;20.02;60.19;100017.88;5011555;28;20438;-90
2023/01/26 05:02:15;;;;;;;0.20;0.20;;;;;;;20.05;60.38;100030.91;5011335;28;20034;-90
2023/01/26 05:04:41;;;;;;;0.20;0.20;;;;;;;20.02;60.06;100025.19;5028795;28;20025;-89
2023/01/26 05:07:07;;;;;;;0.20;0.20;;;;;;;20.06;60.17;100035.28;5029391;28;20626;-89
2023/01/26 05:09:32;;;;;;;0.20;0.20;;;;;;;20.05;60.15;100033.63;5029131;28;20025;-89
2023/01/26 05:12:32;;;;;;;0.20;0.20;;;;;;;20.06;60.23;100037.19;4994842;28;20108;-89
2023/01/26 05:14:44;;;;;;;0.20;0.20;;;;;;;20.06;60.04;100035.28;5027634;28;21013;-89
2023/01/26 05:17:09;;;;;;;0.30;0.30;;;;;;;20.06;60.11;100024.41;5010699;28;20090;-89
2023/01/26 05:19:35;;;;;;;0.20;0.20;;;;;;;20.06;60.08;100024.41;4994664;28;20040;-89
2023/01/26 05:22:01;;;;;;;0.30;0.30;;;;;;;20.06;60.12;100026.31;5028545;28;20269;-89
2023/01/26 05:24:26;;;;;;;0.20;0.20;;;;;;;20.07;60.22;100036.06;5010574;28;20049;-89
2023/01/26 05:27:19;;;;;;;0.20;0.20;;;;;;;20.05;60.18;100039.06;5028772;28;20144;-89
2023/01/26 05:29:37;;;;;;;0.20;0.20;;;;;;;20.08;60.02;100032.31;5026084;28;20111;-89
2023/01/26 05:32:03;;;;;;;0.30;0.30;;;;;;;20.05;60.12;100027.38;5011028;28;20719;-89
2023/01/26 05:34:29;;;;;;;0.20;0.20;;;;;;;20.07;60.20;100027.94;4992568;28;20368;-89
2023/01/26 05:36:55;;;;;;;0.20;0.20;;;;;;;20.03;60.12;100029.56;4991454;28;20121;-89
2023/01/26 05:39:20;;;;;;;0.20;0.20;;;;;;;20.00;60.24;100030.88;5026552;28;20387;-88
2023/01/26 05:41:46;;;;;;;0.30;0.30;;;;;;;20.07;60.03;100042.34;5027544;28;20134;-89
2023/01/26 05:44:11;;;;;;;0.30;0.30;;;;;;;20.06;60.04;100046.13;5026666;28;20383;-89
2023/01/26 05:46:37;;;;;;;0.20;0.20;;;;;;;20.05;60.11;100059.94;5009586;28;20467;-89
2023/01/26 05:49:03;;;;;;;0.10;0.10;;;;;;;20.06;59.94;100056.16;5025515;28;20606;-89
2023/01/26 05:51:28;;;;;;;0.20;0.20;;;;;;;20.06;60.08;100050.75;5027242;28;20041;-89
2023/01/26 05:53:54;;;;;;;0.20;0.20;;;;;;;20.07;59.82;100049.66;5027683;28;20048;-89
2023/01/26 05:56:19;;;;;;;0.25;0.25;;;;;;;20.05;60.02;100052.59;5025657;28;20229;-90
2023/01/26 05:58:45;;;;;;;0.20;0.20;;;;;;;20.06;60.17;100046.13;5026109;28;20032;-90
2023/01/26 06:01:11;;;;;;;0.25;0.25;;;;;;;20.08;60.09;100045.88;5008876;28;20495;-90
2023/01/26 06:03:37;;;;;;;0.20;0.20;;;;;;;20.08;59.89;100051.28;5025204;28;20026;-89
2023/01/26 06:06:02;;;;;;;0.20;0.20;;;;;;;20.03;60.01;100052.06;5026181;28;20017;-89
2023/01/26 06:08:28;;;;;;;0.20;0.20;;;;;;;20.05;60.27;100049.91;5026235;28;20576;-89
2023/01/26 06:10:59;;;;;;;0.20;0.20;;;;;;;20.07;60.18;100057.78;5025736;28;20033;-89
2023/01/26 06:13:24;;;;;;;0.30;0.30;;;;;;;20.07;60.09;100052.34;5005222;28;20122;-89
2023/01/26 06:15:50;;;;;;;0.20;0.20;;;;;;;20.07;60.27;100050.47;5046578;28;20107;-90
2023/01/26 06:18:15;;;;;;;0.20;0.20;;;;;;;20.08;60.02;100062.94;5046639;28;20461;-90
2023/01/26 06:20:41;;;;;;;0.20;0.20;;;;;;;20.07;60.14;100058.63;5047840;28;20029;-90
2023/01/26 06:23:10;;;;;;;0.20;0.20;;;;;;;20.07;60.20;100052.34;5047747;28;20040;-90
2023/01/26 06:25:38;;;;;;;0.20;0.20;;;;;;;20.06;60.17;100056.97;5045576;28;20108;-89
2023/01/26 06:28:04;;;;;;;0.20;0.20;;;;;;;20.00;60.07;100046.34;5045407;28;20486;-89
2023/01/26 06:30:30;;;;;;;0.20;0.20;;;;;;;20.05;60.08;100060.75;5046480;28;20029;-89
2023/01/26 06:32:56;;;;;;;0.25;0.25;;;;;;;20.04;60.24;100059.13;5029637;28;20055;-89
2023/01/26 06:35:21;;;;;;;0.20;0.20;;;;;;;20.07;60.14;100058.63;5047410;28;20244;-90
2023/01/26 06:37:49;;;;;;;0.20;0.20;;;;;;;20.06;60.10;100061.59;5047783;28;20021;-90
2023/01/26 06:40:15;;;;;;;0.20;0.20;;;;;;;20.05;60.34;100066.16;5045674;28;20055;-90
2023/01/26 06:42:49;;;;;;;0.30;0.20;;;;;;;20.07;60.33;100068.63;5046036;28;20031;-90
2023/01/26 06:45:15;;;;;;;0.20;0.20;;;;;;;20.07;59.94;100085.75;5028755;28;20580;-90
2023/01/26 06:47:47;;;;;;;0.20;0.20;;;;;;;20.05;60.18;100078.94;5029520;28;20040;-91
2023/01/26 06:50:18;;;;;;;0.30;0.30;;;;;;;20.06;60.03;100083.28;5046835;28;20091;-91
2023/01/26 06:52:46;;;;;;;0.30;0.30;;;;;;;20.10;59.95;100089.00;5044562;28;20108;-89
2023/01/26 06:55:35;;;;;;;0.20;0.20;;;;;;;20.11;59.85;100096.06;5047155;28;20021;-89
2023/01/26 06:58:01;;;;;;;0.30;0.30;;;;;;;20.08;60.03;100109.06;5035740;28;20041;-90
2023/01/26 07:00:27;;;;;;;0.20;0.20;;;;;;;20.08;59.86;100113.69;5045930;28;20352;-89
2023/01/26 07:02:52;;;;;;;0.30;0.30;;;;;;;20.04;59.88;100109.81;5047147;28;20056;-89
2023/01/26 07:05:18;;;;;;;0.20;0.20;;;;;;;20.07;59.83;100107.44;5046437;28;20328;-89
2023/01/26 07:07:44;;;;;;;0.25;0.25;;;;;;;20.06;59.97;100127.50;5046492;28;20020;-89
2023/01/26 07:10:10;;;;;;;0.25;0.25;;;;;;;20.06;59.90;100110.41;5045297;28;20021;-90
2023/01/26 07:12:43;;;;;;;0.20;0.20;;;;;;;20.08;59.94;100113.69;5045353;28;20033;-89
2023/01/26 07:15:10;;;;;;;0.20;0.20;;;;;;;20.07;59.89;100112.88;5025088;28;20434;-89
2023/01/26 07:17:36;;;;;;;0.28;0.28;;;;;;;20.08;59.79;100129.97;5024588;28;20526;-90
2023/01/26 07:20:02;;;;;;;0.30;0.30;;;;;;;20.08;60.09;100129.97;5026644;28;20034;-89
2023/01/26 07:22:28;;;;;;;0.20;0.20;;;;;;;20.08;59.73;100135.38;5026861;28;20715;-89
2023/01/26 07:24:53;;;;;;;0.20;0.20;;;;;;;20.09;60.14;100142.44;5026452;28;20091;-90
2023/01/26 07:27:19;;;;;;;0.30;0.30;;;;;;;20.08;59.87;100152.47;5008740;28;20525;-89
2023/01/26 07:29:46;;;;;;;0.20;0.20;;;;;;;20.06;60.02;100154.63;5026817;28;20032;-89
2023/01/26 07:32:11;;;;;;;0.30;0.30;;;;;;;20.06;59.96;100151.91;5027313;28;20068;-89
2023/01/26 07:34:37;;;;;;;0.30;0.30;;;;;;;20.07;59.83;100145.44;5026949;28;20064;-89
2023/01/26 07:37:04;;;;;;;0.57;0.30;;;;;;;20.06;60.03;100154.63;5026814;28;20024;-89
2023/01/26 07:39:30;;;;;;;0.30;0.30;;;;;;;20.07;60.03;100159.00;5026651;28;20025;-89
2023/01/26 07:41:56;;;;;;;0.20;0.20;;;;;;;20.07;60.04;100155.44;5027080;28;20365;-89
2023/01/26 07:44:22;;;;;;;0.35;0.35;;;;;;;20.09;59.88;100169.56;5026805;28;20495;-91
2023/01/26 07:46:47;;;;;;;0.25;0.22;;;;;;;20.05;60.01;100158.41;5026594;28;20558;-90
2023/01/26 07:49:13;;;;;;;0.20;0.20;;;;;;;20.07;60.11;100171.72;4975174;28;20029;-91
2023/01/26 07:51:39;;;;;;;0.25;0.25;;;;;;;20.06;59.76;100168.19;5008371;28;20043;-90
2023/01/26 07:54:05;;;;;;;0.20;0.20;;;;;;;20.08;59.70;100174.16;5009277;28;20029;-90
2023/01/26 07:56:31;;;;;;;0.30;0.30;;;;;;;20.05;60.02;100168.44;5008862;28;20037;-89
2023/01/26 07:58:57;;;;;;;0.30;0.30;;;;;;;20.05;59.90;100179.28;5027107;28;20028;-89
2023/01/26 08:01:22;;;;;;;0.25;0.25;;;;;;;20.05;59.55;100177.38;5026480;28;20033;-89
2023/01/26 08:03:52;;;;;;;0.20;0.20;;;;;;;20.05;59.98;100185.53;5025878;28;20068;-90
2023/01/26 08:06:18;;;;;;;0.20;0.20;;;;;;;20.05;59.71;100180.09;5008888;28;20029;-90
2023/01/26 08:08:45;;;;;;;0.20;0.20;;;;;;;20.07;59.70;100182.56;5008866;28;20021;-89
2023/01/26 08:11:10;;;;;;;0.28;0.28;;;;;;;20.07;59.80;100188.81;4976518;28;20430;-90
2023/01/26 08:13:36;;;;;;;0.20;0.20;;;;;;;20.05;60.06;100185.53;4975644;28;20041;-90
2023/01/26 08:16:04;;;;;;;0.30;0.30;;;;;;;20.06;59.90;100187.19;5026461;28;20033;-90
2023/01/26 08:18:30;;;;;;;0.30;0.30;;;;;;;20.07;59.73;100194.25;5026116;28;20501;-89
2023/01/26 08:20:55;;;;;;;0.30;0.30;;;;;;;20.06;59.96;100187.19;5029712;28;20132;-89
2023/01/26 08:23:21;;;;;;;0.30;0.30;;;;;;;20.06;59.75;100192.59;5012239;28;20036;-89
2023/01/26 08:25:53;;;;;;;0.30;0.20;;;;;;;20.06;59.97;100192.59;5030263;28;20029;-89
2023/01/26 08:28:18;;;;;;;0.38;0.30;;;;;;;20.05;59.90;100190.94;5028921;28;20068;-89
2023/01/26 08:30:44;;;;;;;0.28;0.28;;;;;;;20.05;60.08;100193.66;5030013;28;20025;-89
2023/01/26 08:33:10;;;;;;;0.45;0.30;;;;;;;20.06;59.88;100187.19;5028902;28;20091;-89
2023/01/26 08:35:35;;;;;;;0.30;0.30;;;;;;;20.07;59.89;100193.41;4995676;28;20394;-89
2023/01/26 08:38:01;;;;;;;0.55;0.40;;;;;;;20.06;59.90;100195.31;5012108;28;20273;-89
2023/01/26 08:40:27;;;;;;;0.30;0.30;;;;;;;20.06;59.75;100200.75;4997193;28;20476;-89
2023/01/26 08:42:53;;;;;;;0.43;0.30;;;;;;;20.05;60.01;100207.22;5012562;28;20052;-90
2023/01/26 08:45:19;;;;;;;0.30;0.30;;;;;;;20.06;59.87;100206.16;5028998;28;20090;-89
2023/01/26 08:51:07;;;;;;;0.20;0.20;;;;;;;20.04;59.82;100212.91;5046538;22;20051;-24
2023/01/26 08:53:34;;;;;;;0.30;0.30;;;;;;;20.04;59.83;100208.31;5021813;28;20027;-24
2023/01/26 08:56:01;;;;;;;0.47;0.35;;;;;;;20.06;59.82;100203.47;5027889;28;20452;-24
2023/01/26 08:58:27;;;;;;;0.20;0.20;;;;;;;20.05;60.05;100212.66;5029020;28;20473;-24
2023/01/26 09:00:53;;;;;;;0.28;0.28;;;;;;;20.07;59.87;100209.69;5028390;28;20025;-24
2023/01/26 09:03:19;;;;;;;0.57;0.30;;;;;;;20.05;59.71;100204.50;5028228;28;20040;-24
2023/01/26 09:05:44;;;;;;;0.22;0.22;;;;;;;20.07;59.85;100204.25;5029234;28;20037;-25
2023/01/26 09:08:10;;;;;;;0.28;0.28;;;;;;;20.08;59.72;100208.63;5029462;28;20028;-24
2023/01/26 09:10:37;;;;;;;0.30;0.30;;;;;;;20.07;59.59;100199.69;5028147;28;20156;-25
2023/01/26 09:13:02;;;;;;;0.30;0.30;;;;;;;20.07;59.95;100202.38;5027611;28;20033;-24
2023/01/26 09:15:28;;;;;;;0.25;0.25;;;;;;;20.07;59.96;100204.25;5028417;28;20560;-24
2023/01/26 09:17:54;;;;;;;0.30;0.30;;;;;;;20.08;59.69;100209.44;5029023;28;20029;-24
2023/01/26 09:20:19;;;;;;;0.30;0.28;;;;;;;20.07;59.92;100206.97;5027677;28;20061;-24
2023/01/26 09:22:45;;;;;;;0.20;0.20;;;;;;;20.08;59.74;100205.91;5029105;28;20032;-24
2023/01/26 09:25:11;;;;;;;0.30;0.30;;;;;;;20.06;59.85;100214.31;5028431;28;20025;-24
2023/01/26 09:27:37;;;;;;;0.30;0.30;;;;;;;20.06;59.74;100211.59;5028417;28;20071;-24
2023/01/26 09:30:03;;;;;;;0.30;0.30;;;;;;;20.06;59.95;100208.06;5027686;28;20036;-24
2023/01/26 09:32:29;;;;;;;0.30;0.30;;;;;;;20.06;59.92;100211.59;5028177;28;20029;-25
2023/01/26 09:34:55;;;;;;;0.30;0.30;;;;;;;20.10;59.76;100213.81;5028717;28;20026;-24
2023/01/26 09:37:20;;;;;;;0.45;0.40;;;;;;;20.07;59.92;100209.69;5028342;28;20044;-24
2023/01/26 09:39:46;;;;;;;0.30;0.30;;;;;;;20.09;59.77;100212.97;5028986;28;20029;-24
2023/01/26 09:42:37;;;;;;;0.25;0.25;;;;;;;20.07;59.94;100210.53;5026800;28;20105;-24
2023/01/26 09:45:11;;;;;;;0.82;0.30;;;;;;;20.10;59.72;100219.22;5028424;28;20025;-24
2023/01/26 09:47:55;;;;;;;;;;;;;;;20.10;59.76;100219.22;5028571;28;20372;-24
2023/01/26 09:50:25;;;;;;;0.70;0.40;;;;;;;20.10;59.71;100213.81;5028503;28;19921;-24
2023/01/26 09:52:54;;;;;;;0.40;0.40;;;;;;;20.10;59.91;100213.81;5026997;28;20417;-24
2023/01/26 09:55:20;;;;;;;0.30;0.30;;;;;;;20.08;59.86;100217.56;5028111;28;20504;-25
2023/01/26 09:57:52;;;;;;;0.82;0.50;;;;;;;20.08;60.08;100216.75;5027031;28;20440;-24
2023/01/26 10:00:26;;;;;;;0.75;0.30;;;;;;;20.08;59.86;100223.00;5010661;28;20104;-24
2023/01/26 10:03:01;;;;;;;;;;;;;;;20.12;59.73;100211.66;5025845;28;20055;-24
2023/01/26 10:05:48;;;;;;;0.30;0.30;;;;;;;20.12;59.81;100217.06;5026267;28;20366;-24
2023/01/26 10:08:16;;;;;;;0.40;0.40;;;;;;;20.10;59.72;100219.22;5027363;28;20037;-24
2023/01/26 10:10:47;;;;;;;0.43;0.40;;;;;;;20.10;59.75;100219.22;5027795;28;20022;-24
2023/01/26 10:13:14;;;;;;;0.40;0.40;;;;;;;20.08;59.79;100212.16;5026360;28;20203;-24
2023/01/26 10:15:42;;;;;;;0.30;0.30;;;;;;;20.11;59.81;100212.72;5026991;28;20132;-24
2023/01/26 10:18:31;;;;;;;0.73;0.30;;;;;;;20.10;59.76;100220.03;5026299;28;20080;-24
2023/01/26 10:20:58;;;;;;;0.40;0.40;;;;;;;20.08;59.80;100224.91;5028252;28;20037;-24
2023/01/26 10:23:31;;;;;;;0.30;0.30;;;;;;;20.10;59.78;100224.66;5027229;28;20040;-24
2023/01/26 10:26:14;;;;;;;0.38;0.38;;;;;;;20.09;59.85;100229.25;5025891;28;20502;-24
2023/01/26 10:28:44;;;;;;;0.35;0.35;;;;;;;20.10;60.01;100230.06;5026455;28;20030;-25
2023/01/26 10:31:15;;;;;;;0.30;0.30;;;;;;;20.10;59.98;100243.63;5009772;28;20486;-24
2023/01/26 10:33:50;;;;;;;0.40;0.40;;;;;;;20.10;59.71;100243.63;5025920;28;20042;-24
2023/01/26 10:36:16;;;;;;;0.30;0.30;;;;;;;20.10;59.87;100249.06;5028111;28;20072;-24
2023/01/26 10:38:42;;;;;;;0.40;0.40;;;;;;;20.10;59.88;100249.06;5027279;28;20036;-24
2023/01/26 10:41:16;;;;;;;0.35;0.35;;;;;;;20.11;59.93;100250.69;5027234;28;20127;-24
2023/01/26 10:43:49;;;;;;;0.30;0.30;;;;;;;20.12;59.85;100261.28;5026488;28;20033;-24
2023/01/26 10:46:25;;;;;;;0.40;0.38;;;;;;;20.10;60.21;100265.34;5026100;28;20120;-24
2023/01/26 10:48:52;;;;;;;0.52;0.40;;;;;;;20.11;59.90;100264.25;5024774;28;20048;-24
2023/01/26 10:51:22;;;;;;;0.40;0.40;;;;;;;20.13;60.08;100275.66;5023051;28;20073;-24
2023/01/26 10:53:48;;;;;;;0.45;0.25;;;;;;;20.11;59.64;100277.81;5025507;28;20509;-24
2023/01/26 10:56:15;;;;;;;0.30;0.30;;;;;;;20.10;60.07;100284.34;5026721;28;20111;-24
2023/01/26 10:58:54;;;;;;;0.30;0.30;;;;;;;20.10;59.77;100285.16;5025210;28;20431;-24
2023/01/26 11:01:26;;;;;;;0.30;0.30;;;;;;;20.11;59.83;100285.97;5024773;28;20442;-24
2023/01/26 11:04:01;;;;;;;0.40;0.40;;;;;;;20.11;59.92;100280.53;5026837;28;20029;-24
2023/01/26 11:06:27;;;;;;;0.43;0.43;;;;;;;20.12;59.74;100283.00;5000606;28;20037;-24
2023/01/26 11:08:53;;;;;;;0.30;0.30;;;;;;;20.11;59.51;100284.09;5026990;28;20070;-24
2023/01/26 11:11:25;;;;;;;0.30;0.30;;;;;;;20.12;59.62;100282.19;5026600;28;20281;-24
2023/01/26 11:14:17;;;;;;;0.28;0.28;;;;;;;20.13;59.69;100278.38;5025874;28;20029;-24
2023/01/26 11:16:57;;;;;;;0.35;0.30;;;;;;;20.12;59.68;100277.56;5024597;28;20076;-24
2023/01/26 11:19:23;;;;;;;0.68;0.55;;;;;;;20.13;59.87;100286.53;5025421;28;20095;-24
2023/01/26 11:21:58;;;;;;;0.35;0.35;;;;;;;20.13;59.81;100286.53;5026617;28;20037;-24
2023/01/26 11:24:53;;;;;;;1.23;0.50;;;;;;;20.13;59.64;100279.22;5025498;28;20140;-24
2023/01/26 11:27:47;;;;;;;0.40;0.40;;;;;;;20.13;59.56;100284.66;5024903;28;20068;-24
2023/01/26 11:30:44;;;;;;;0.40;0.40;;;;;;;20.14;59.66;100278.13;4995389;28;20107;-25
2023/01/26 11:33:24;;;;;;;0.30;0.30;;;;;;;20.12;59.51;100293.84;5023657;28;20128;-25
2023/01/26 11:35:59;;;;;;;0.30;0.30;;;;;;;20.11;59.75;100286.81;5022403;28;20025;-25
2023/01/26 11:38:28;;;;;;;0.40;0.40;;;;;;;20.13;59.52;100284.66;5021837;28;20033;-24
2023/01/26 11:41:32;;;;;;;0.30;0.30;;;;;;;20.12;59.59;100296.56;5023645;28;20446;-25
2023/01/26 11:44:35;;;;;;;0.40;0.40;;;;;;;20.13;59.41;100300.94;5005182;28;20410;-25
2023/01/26 11:47:09;;;;;;;0.40;0.35;;;;;;;20.12;59.59;100303.88;5023422;28;20038;-25
2023/01/26 11:49:46;;;;;;;;;;;;;;;20.14;59.31;100296.31;5019241;28;20025;-25
2023/01/26 11:52:34;;;;;;;0.30;0.30;;;;;;;20.14;59.36;100296.31;5023785;28;19916;-24
2023/01/26 11:55:36;;;;;;;0.63;0.30;;;;;;;20.13;59.69;100300.94;5023180;28;20080;-25
2023/01/26 11:58:04;;;;;;;0.57;0.50;;;;;;;20.14;59.49;100309.88;4992340;28;20037;-25
2023/01/26 12:00:39;;;;;;;0.70;0.40;;;;;;;20.13;59.45;100316.34;5027581;28;20463;-24
2023/01/26 12:03:07;;;;;;;0.30;0.30;;;;;;;20.12;59.29;100317.44;5026667;28;20033;-24
2023/01/26 12:05:47;;;;;;;0.38;0.38;;;;;;;20.12;59.51;100325.59;4995235;28;20071;-25
2023/01/26 12:08:22;;;;;;;0.30;0.30;;;;;;;20.13;59.61;100329.94;5026659;28;20029;-25
2023/01/26 12:10:57;;;;;;;0.65;0.40;;;;;;;20.12;59.52;100336.44;5026081;28;20025;-24
2023/01/26 12:13:34;;;;;;;0.57;0.40;;;;;;;20.11;59.51;100337.50;5007704;28;20521;-25
2023/01/26 12:16:17;;;;;;;0.63;0.30;;;;;;;20.13;59.37;100340.78;5025815;28;20057;-25
2023/01/26 12:19:06;;;;;;;1.17;0.30;;;;;;;20.13;59.34;100347.03;5022643;28;20017;-25
2023/01/26 12:21:32;;;;;;;0.28;0.28;;;;;;;20.14;59.39;100339.72;4984628;28;20042;-24
2023/01/26 12:24:02;;;;;;;0.85;0.30;;;;;;;20.13;59.46;100354.34;5027375;28;20033;-24
2023/01/26 12:26:35;;;;;;;0.20;0.20;;;;;;;20.13;59.47;100346.19;5024324;28;20030;-24
2023/01/26 12:29:13;;;;;;;0.73;0.40;;;;;;;20.11;59.53;100356.50;5023641;28;20475;-24